createdAt,value
2022-08-11T00:00:08.837Z,39.10
2022-08-11T00:01:38.459Z,39.16
2022-08-11T00:02:54.344Z,39.17
2022-08-11T00:04:05.542Z,39.21
2022-08-11T00:05:23.059Z,39.29
2022-08-11T00:06:41.198Z,39.31
2022-08-11T00:07:51.268Z,39.17
2022-08-11T00:08:59.974Z,39.37
2022-08-11T00:10:12.885Z,39.36
2022-08-11T00:11:20.813Z,39.53
2022-08-11T00:12:28.983Z,39.53
2022-08-11T00:13:40.104Z,39.49
2022-08-11T00:15:00.247Z,39.38
2022-08-11T00:16:23.884Z,39.20
2022-08-11T00:17:34.981Z,38.97
2022-08-11T00:18:51.096Z,38.87
2022-08-11T00:20:16.213Z,38.94
2022-08-11T00:21:32.528Z,38.87
2022-08-11T00:23:10.387Z,38.84
2022-08-11T00:24:18.257Z,38.65
2022-08-11T00:25:26.001Z,38.81
2022-08-11T00:26:33.462Z,38.99
2022-08-11T00:27:42.207Z,38.96
2022-08-11T00:28:53.746Z,38.89
2022-08-11T00:30:06.160Z,38.97
2022-08-11T00:31:30.772Z,39.00
2022-08-11T00:32:42.701Z,38.83
2022-08-11T00:33:51.148Z,38.79
2022-08-11T00:35:51.968Z,38.72
2022-08-11T00:37:03.922Z,38.65
2022-08-11T00:38:11.624Z,38.50
2022-08-11T00:39:20.807Z,38.63
2022-08-11T00:41:03.142Z,38.62
2022-08-11T00:42:32.599Z,38.62
2022-08-11T00:44:16.741Z,38.54
2022-08-11T00:46:09.635Z,38.57
2022-08-11T00:48:00.212Z,38.41
2022-08-11T00:49:42.671Z,38.31
2022-08-11T00:51:13.886Z,38.15
2022-08-11T00:52:53.533Z,38.21
2022-08-11T00:54:34.138Z,38.22
2022-08-11T00:56:18.117Z,38.02
2022-08-11T00:58:03.169Z,37.84
2022-08-11T00:59:45.690Z,37.69
2022-08-11T01:01:27.644Z,37.77
2022-08-11T01:03:02.723Z,37.65
2022-08-11T01:04:51.182Z,37.63
2022-08-11T01:06:33.482Z,37.49
2022-08-11T01:08:03.539Z,37.47
2022-08-11T01:09:45.862Z,37.58
2022-08-11T01:11:20.059Z,37.69
2022-08-11T01:13:20.787Z,37.70
2022-08-11T01:14:53.972Z,37.68
2022-08-11T01:16:32.515Z,37.72
2022-08-11T01:18:15.007Z,37.72
2022-08-11T01:20:48.123Z,37.74
2022-08-11T01:21:21.793Z,37.71
2022-08-11T01:23:07.285Z,37.69
2022-08-11T01:24:37.227Z,37.76
2022-08-11T01:26:21.786Z,37.66
2022-08-11T01:27:53.913Z,37.64
2022-08-11T01:29:30.730Z,37.44
2022-08-11T01:30:46.151Z,37.42
2022-08-11T01:32:31.012Z,37.49
2022-08-11T01:34:16.403Z,37.38
2022-08-11T01:35:43.481Z,37.35
2022-08-11T01:37:09.569Z,37.31
2022-08-11T01:38:44.406Z,37.18
2022-08-11T01:40:10.438Z,37.12
2022-08-11T01:42:04.366Z,37.06
2022-08-11T01:43:41.397Z,36.95
2022-08-11T01:44:55.352Z,36.93
2022-08-11T01:46:33.426Z,36.79
2022-08-11T01:47:58.847Z,36.62
2022-08-11T01:50:06.885Z,36.53
2022-08-11T01:51:19.670Z,36.41
2022-08-11T01:52:42.914Z,36.33
2022-08-11T01:54:01.123Z,36.30
2022-08-11T01:55:49.769Z,36.36
2022-08-11T01:57:01.440Z,36.06
2022-08-11T01:58:43.228Z,35.89
2022-08-11T02:00:03.466Z,35.90
2022-08-11T02:01:16.379Z,35.84
2022-08-11T02:03:13.147Z,35.65
2022-08-11T02:04:59.610Z,35.55
2022-08-11T02:06:55.313Z,35.27
2022-08-11T02:08:18.933Z,34.80
2022-08-11T02:09:49.739Z,34.41
2022-08-11T02:11:23.424Z,34.14
2022-08-11T02:12:53.886Z,33.92
2022-08-11T02:14:22.064Z,33.76
2022-08-11T02:15:44.153Z,33.54
2022-08-11T02:17:18.370Z,33.35
2022-08-11T02:19:22.100Z,33.22
2022-08-11T02:21:06.600Z,33.20
2022-08-11T02:24:05.578Z,33.17
2022-08-11T02:25:11.826Z,33.02
2022-08-11T02:26:46.981Z,32.77
2022-08-11T02:28:18.978Z,32.51
2022-08-11T02:29:51.296Z,32.26
2022-08-11T02:32:24.342Z,32.02
2022-08-11T02:33:27.551Z,31.78
2022-08-11T02:35:14.937Z,31.59
2022-08-11T02:36:45.257Z,31.42
2022-08-11T02:38:03.410Z,31.26
2022-08-11T02:39:17.098Z,31.14
2022-08-11T02:40:59.759Z,31.05
2022-08-11T02:42:32.817Z,30.93
2022-08-11T02:43:55.679Z,30.81
2022-08-11T02:45:31.467Z,30.73
2022-08-11T02:47:23.218Z,30.63
2022-08-11T02:49:16.874Z,30.51
2022-08-11T02:50:27.195Z,30.40
2022-08-11T02:51:55.887Z,30.34
2022-08-11T02:53:17.401Z,30.25
2022-08-11T02:54:56.440Z,30.17
2022-08-11T02:56:17.723Z,30.09
2022-08-11T02:57:35.406Z,30.03
2022-08-11T02:59:36.163Z,29.98
2022-08-11T03:01:14.751Z,29.89
2022-08-11T03:02:59.193Z,29.83
2022-08-11T03:04:11.210Z,29.77
2022-08-11T03:05:47.806Z,29.76
2022-08-11T03:07:05.030Z,29.74
2022-08-11T03:09:07.090Z,29.69
2022-08-11T03:10:33.002Z,29.62
2022-08-11T03:12:27.131Z,29.58
2022-08-11T03:13:53.270Z,29.52
2022-08-11T03:15:41.910Z,29.46
2022-08-11T03:17:04.700Z,29.38
2022-08-11T03:18:36.399Z,29.31
2022-08-11T03:20:01.217Z,29.24
2022-08-11T03:21:20.426Z,29.20
2022-08-11T03:23:04.488Z,29.19
2022-08-11T03:24:51.700Z,29.15
2022-08-11T03:26:18.476Z,29.11
2022-08-11T03:28:02.635Z,29.06
2022-08-11T03:29:46.517Z,29.01
2022-08-11T03:31:28.744Z,28.96
2022-08-11T03:33:09.881Z,28.90
2022-08-11T03:34:26.368Z,28.85
2022-08-11T03:35:39.274Z,28.82
2022-08-11T03:37:41.960Z,28.80
2022-08-11T03:39:26.776Z,28.74
2022-08-11T03:41:54.726Z,28.72
2022-08-11T03:43:02.551Z,28.71
2022-08-11T03:44:45.896Z,28.67
2022-08-11T03:46:06.478Z,28.64
2022-08-11T03:47:52.338Z,28.63
2022-08-11T03:49:27.499Z,28.59
2022-08-11T03:50:59.795Z,28.55
2022-08-11T03:52:46.693Z,28.53
2022-08-11T03:54:20.785Z,28.48
2022-08-11T03:55:56.501Z,28.43
2022-08-11T03:57:44.155Z,28.39
2022-08-11T03:59:22.050Z,28.36
2022-08-11T04:00:57.097Z,28.34
2022-08-11T04:02:22.277Z,28.31
2022-08-11T04:03:45.320Z,28.30
2022-08-11T04:05:27.218Z,28.28
2022-08-11T04:07:08.371Z,28.28
2022-08-11T04:08:20.310Z,28.27
2022-08-11T04:09:49.506Z,28.25
2022-08-11T04:11:05.159Z,28.21
2022-08-11T04:12:47.170Z,28.18
2022-08-11T04:14:51.152Z,28.11
2022-08-11T04:16:33.777Z,28.04
2022-08-11T04:18:13.407Z,27.97
2022-08-11T04:19:53.025Z,27.93
2022-08-11T04:21:21.596Z,27.89
2022-08-11T04:22:53.993Z,27.86
2022-08-11T04:24:38.652Z,27.86
2022-08-11T04:26:27.585Z,27.87
2022-08-11T04:28:28.638Z,27.83
2022-08-11T04:30:05.836Z,27.77
2022-08-11T04:31:51.639Z,27.73
2022-08-11T04:33:37.269Z,27.71
2022-08-11T04:35:13.817Z,27.68
2022-08-11T04:37:11.270Z,27.66
2022-08-11T04:38:45.562Z,27.62
2022-08-11T04:40:28.512Z,27.57
2022-08-11T04:42:15.800Z,27.52
2022-08-11T04:44:06.435Z,27.50
2022-08-11T04:45:53.692Z,27.45
2022-08-11T04:48:03.973Z,27.40
2022-08-11T04:49:47.007Z,27.34
2022-08-11T04:51:37.050Z,27.28
2022-08-11T04:53:30.508Z,27.22
2022-08-11T04:55:33.379Z,27.15
2022-08-11T04:57:06.372Z,27.09
2022-08-11T04:58:56.556Z,27.05
2022-08-11T05:00:29.108Z,27.01
2022-08-11T05:02:18.726Z,26.98
2022-08-11T05:03:38.198Z,26.96
2022-08-11T05:05:23.997Z,26.95
2022-08-11T05:07:00.653Z,26.92
2022-08-11T05:08:26.352Z,26.90
2022-08-11T05:09:48.767Z,26.90
2022-08-11T05:11:15.738Z,26.89
2022-08-11T05:12:47.707Z,26.88
2022-08-11T05:14:39.827Z,26.85
2022-08-11T05:16:11.630Z,26.82
2022-08-11T05:18:01.086Z,26.77
2022-08-11T05:19:34.182Z,26.70
2022-08-11T05:21:07.674Z,26.62
2022-08-11T05:22:37.645Z,26.56
2022-08-11T05:24:10.042Z,26.49
2022-08-11T05:26:45.430Z,26.44
2022-08-11T05:27:47.558Z,26.35
2022-08-11T05:29:22.928Z,26.27
2022-08-11T05:30:50.848Z,26.20
2022-08-11T05:32:20.376Z,26.14
2022-08-11T05:34:06.838Z,26.10
2022-08-11T05:35:28.338Z,26.07
2022-08-11T05:36:56.412Z,26.07
2022-08-11T05:38:39.350Z,26.07
2022-08-11T05:40:11.050Z,26.04
2022-08-11T05:41:39.370Z,26.01
2022-08-11T05:43:22.511Z,25.99
2022-08-11T05:44:49.925Z,25.97
2022-08-11T05:46:29.337Z,25.97
2022-08-11T05:47:56.838Z,25.95
2022-08-11T05:49:23.426Z,25.92
2022-08-11T05:50:51.086Z,25.89
2022-08-11T05:52:25.520Z,25.87
2022-08-11T05:54:28.928Z,25.83
2022-08-11T05:56:02.787Z,25.80
2022-08-11T05:57:48.316Z,25.79
2022-08-11T05:58:43.226Z,25.78
2022-08-11T05:59:52.174Z,25.77
2022-08-11T06:01:07.001Z,25.76
2022-08-11T06:02:17.222Z,25.73
2022-08-11T06:03:30.701Z,25.72
2022-08-11T06:04:41.740Z,25.72
2022-08-11T06:05:52.312Z,25.72
2022-08-11T06:07:10.315Z,25.73
2022-08-11T06:08:19.197Z,25.71
2022-08-11T06:09:52.749Z,25.70
2022-08-11T06:11:05.378Z,25.70
2022-08-11T06:12:19.946Z,25.68
2022-08-11T06:13:29.995Z,25.67
2022-08-11T06:14:44.642Z,25.67
2022-08-11T06:15:57.618Z,25.67
2022-08-11T06:17:06.827Z,25.68
2022-08-11T06:18:16.427Z,25.68
2022-08-11T06:19:26.099Z,25.68
2022-08-11T06:20:38.737Z,25.66
2022-08-11T06:21:48.810Z,25.64
2022-08-11T06:23:09.069Z,25.62
2022-08-11T06:24:17.625Z,25.57
2022-08-11T06:25:33.604Z,25.52
2022-08-11T06:27:10.700Z,25.47
2022-08-11T06:28:14.969Z,25.40
2022-08-11T06:29:36.893Z,25.35
2022-08-11T06:30:47.769Z,25.29
2022-08-11T06:32:05.167Z,25.26
2022-08-11T06:33:14.768Z,25.22
2022-08-11T06:34:36.746Z,25.21
2022-08-11T06:36:07.376Z,25.17
2022-08-11T06:37:48.814Z,25.13
2022-08-11T06:39:24.819Z,25.09
2022-08-11T06:41:17.747Z,25.06
2022-08-11T06:42:46.742Z,25.03
2022-08-11T06:44:19.280Z,25.01
2022-08-11T06:45:50.602Z,25.01
2022-08-11T06:47:02.256Z,25.02
2022-08-11T06:48:15.058Z,25.01
2022-08-11T06:49:48.422Z,25.00
2022-08-11T06:51:21.628Z,24.97
2022-08-11T06:52:37.857Z,24.97
2022-08-11T06:54:05.653Z,24.94
2022-08-11T06:55:56.952Z,24.91
2022-08-11T06:57:30.898Z,24.86
2022-08-11T06:58:59.307Z,24.81
2022-08-11T07:00:28.962Z,24.77
2022-08-11T07:01:57.951Z,24.72
2022-08-11T07:03:17.351Z,24.69
2022-08-11T07:04:52.739Z,24.66
2022-08-11T07:07:11.085Z,24.60
2022-08-11T07:08:49.177Z,24.55
2022-08-11T07:10:24.628Z,24.54
2022-08-11T07:12:00.812Z,24.53
2022-08-11T07:13:44.346Z,24.50
2022-08-11T07:15:21.159Z,24.44
2022-08-11T07:16:31.431Z,24.41
2022-08-11T07:17:52.099Z,24.42
2022-08-11T07:19:28.146Z,24.42
2022-08-11T07:21:01.869Z,24.39
2022-08-11T07:22:35.886Z,24.36
2022-08-11T07:24:05.095Z,24.33
2022-08-11T07:25:38.041Z,24.30
2022-08-11T07:27:08.917Z,24.28
2022-08-11T07:28:50.803Z,24.25
2022-08-11T07:30:00.623Z,24.26
2022-08-11T07:31:15.589Z,24.26
2022-08-11T07:32:32.074Z,24.25
2022-08-11T07:34:07.350Z,24.22
2022-08-11T07:35:41.105Z,24.19
2022-08-11T07:36:57.925Z,24.14
2022-08-11T07:38:13.277Z,24.11
2022-08-11T07:39:31.232Z,24.09
2022-08-11T07:40:43.526Z,24.08
2022-08-11T07:41:52.944Z,24.09
2022-08-11T07:43:01.652Z,24.10
2022-08-11T07:44:13.192Z,24.12
2022-08-11T07:45:43.339Z,24.14
2022-08-11T07:47:14.217Z,24.12
2022-08-11T07:48:42.848Z,24.10
2022-08-11T07:50:14.302Z,24.09
2022-08-11T07:51:42.103Z,24.08
2022-08-11T07:52:52.884Z,24.07
2022-08-11T07:54:17.120Z,24.06
2022-08-11T07:55:51.335Z,24.05
2022-08-11T07:57:08.886Z,24.04
2022-08-11T07:58:45.811Z,24.00
2022-08-11T08:00:23.119Z,23.96
2022-08-11T08:01:59.022Z,23.92
2022-08-11T08:03:29.594Z,23.88
2022-08-11T08:05:00.820Z,23.85
2022-08-11T08:06:36.189Z,23.83
2022-08-11T08:08:09.564Z,23.82
2022-08-11T08:09:37.340Z,23.80
2022-08-11T08:11:05.900Z,23.81
2022-08-11T08:12:34.464Z,23.80
2022-08-11T08:14:04.679Z,23.80
2022-08-11T08:15:34.188Z,23.79
2022-08-11T08:17:00.349Z,23.76
2022-08-11T08:18:26.617Z,23.74
2022-08-11T08:19:36.529Z,23.71
2022-08-11T08:20:48.489Z,23.70
2022-08-11T08:22:07.100Z,23.68
2022-08-11T08:23:36.365Z,23.66
2022-08-11T08:24:46.146Z,23.65
2022-08-11T08:25:59.027Z,23.64
2022-08-11T08:27:07.272Z,23.63
2022-08-11T08:28:21.344Z,23.63
2022-08-11T08:29:53.224Z,23.62
2022-08-11T08:31:03.268Z,23.61
2022-08-11T08:32:13.758Z,23.59
2022-08-11T08:33:29.465Z,23.57
2022-08-11T08:34:41.535Z,23.54
2022-08-11T08:35:54.344Z,23.51
2022-08-11T08:37:15.726Z,23.49
2022-08-11T08:38:35.533Z,23.46
2022-08-11T08:39:42.880Z,23.47
2022-08-11T08:40:50.567Z,23.49
2022-08-11T08:42:00.626Z,23.50
2022-08-11T08:43:11.972Z,23.50
2022-08-11T08:44:40.821Z,23.52
2022-08-11T08:45:50.838Z,23.53
2022-08-11T08:47:01.125Z,23.54
2022-08-11T08:48:23.002Z,23.52
2022-08-11T08:49:40.498Z,23.51
2022-08-11T08:51:12.832Z,23.49
2022-08-11T08:52:42.730Z,23.44
2022-08-11T08:53:58.378Z,23.41
2022-08-11T08:55:07.953Z,23.36
2022-08-11T08:56:17.964Z,23.33
2022-08-11T08:57:31.451Z,23.28
2022-08-11T08:58:51.579Z,23.21
2022-08-11T08:59:59.511Z,23.15
2022-08-11T09:01:08.564Z,23.10
2022-08-11T09:02:16.108Z,23.07
2022-08-11T09:04:06.661Z,23.03
2022-08-11T09:04:56.716Z,22.99
2022-08-11T09:06:05.950Z,22.96
2022-08-11T09:07:14.620Z,22.94
2022-08-11T09:08:25.278Z,22.91
2022-08-11T09:09:35.327Z,22.92
2022-08-11T09:10:45.833Z,22.93
2022-08-11T09:11:54.859Z,22.93
2022-08-11T09:13:02.546Z,22.93
2022-08-11T09:14:14.917Z,22.92
2022-08-11T09:15:23.673Z,22.90
2022-08-11T09:16:30.543Z,22.90
2022-08-11T09:17:48.656Z,22.90
2022-08-11T09:18:57.542Z,22.91
2022-08-11T09:20:14.272Z,22.91
2022-08-11T09:21:42.506Z,22.91
2022-08-11T09:25:06.507Z,22.85
2022-08-11T09:26:37.127Z,22.82
2022-08-11T09:27:50.327Z,22.78
2022-08-11T09:29:03.370Z,22.75
2022-08-11T09:30:12.370Z,22.73
2022-08-11T09:31:21.606Z,22.71
2022-08-11T09:32:30.485Z,22.69
2022-08-11T09:33:40.707Z,22.66
2022-08-11T09:34:54.233Z,22.61
2022-08-11T09:36:22.365Z,22.57
2022-08-11T09:37:55.331Z,22.53
2022-08-11T09:39:23.656Z,22.49
2022-08-11T09:40:31.441Z,22.46
2022-08-11T09:42:01.132Z,22.43
2022-08-11T09:43:30.828Z,22.39
2022-08-11T09:44:52.600Z,22.38
2022-08-11T09:46:00.347Z,22.35
2022-08-11T09:47:17.432Z,22.32
2022-08-11T09:48:34.554Z,22.28
2022-08-11T09:49:41.861Z,22.24
2022-08-11T09:50:55.904Z,22.23
2022-08-11T09:52:05.403Z,22.22
2022-08-11T09:53:36.069Z,22.23
2022-08-11T09:54:49.798Z,22.23
2022-08-11T09:55:56.949Z,22.23
2022-08-11T09:57:23.607Z,22.22
2022-08-11T09:58:41.998Z,22.23
2022-08-11T09:59:52.231Z,22.25
2022-08-11T10:01:31.065Z,22.25
2022-08-11T10:02:40.596Z,22.25
2022-08-11T10:03:48.973Z,22.24
2022-08-11T10:05:22.714Z,22.22
2022-08-11T10:06:53.914Z,22.17
2022-08-11T10:08:02.790Z,22.10
2022-08-11T10:09:10.842Z,22.06
2022-08-11T10:10:24.539Z,22.03
2022-08-11T10:11:32.093Z,22.00
2022-08-11T10:12:42.668Z,21.98
2022-08-11T10:14:34.582Z,21.97
2022-08-11T10:15:39.931Z,21.94
2022-08-11T10:17:10.140Z,21.94
2022-08-11T10:18:40.367Z,21.92
2022-08-11T10:20:03.817Z,21.89
2022-08-11T10:21:20.375Z,21.85
2022-08-11T10:22:45.727Z,21.84
2022-08-11T10:24:24.961Z,21.84
2022-08-11T10:25:51.800Z,21.86
2022-08-11T10:27:28.659Z,21.87
2022-08-11T10:29:11.896Z,21.85
2022-08-11T10:30:42.326Z,21.86
2022-08-11T10:32:13.447Z,21.86
2022-08-11T10:33:59.497Z,21.85
2022-08-11T10:35:11.357Z,21.81
2022-08-11T10:36:21.955Z,21.80
2022-08-11T10:38:08.395Z,21.79
2022-08-11T10:39:03.869Z,21.75
2022-08-11T10:40:12.633Z,21.71
2022-08-11T10:42:03.469Z,21.67
2022-08-11T10:44:02.123Z,21.59
2022-08-11T10:44:46.679Z,21.52
2022-08-11T10:46:13.450Z,21.49
2022-08-11T10:47:46.792Z,21.44
2022-08-11T10:48:58.757Z,21.41
2022-08-11T10:50:28.306Z,21.39
2022-08-11T10:51:54.352Z,21.38
2022-08-11T10:53:25.677Z,21.37
2022-08-11T10:54:54.455Z,21.36
2022-08-11T10:56:25.019Z,21.36
2022-08-11T10:58:05.045Z,21.37
2022-08-11T10:59:17.481Z,21.35
2022-08-11T11:00:26.072Z,21.34
2022-08-11T11:01:36.508Z,21.34
2022-08-11T11:03:23.112Z,21.32
2022-08-11T11:04:50.939Z,21.29
2022-08-11T11:06:51.095Z,21.29
2022-08-11T11:08:37.296Z,21.28
2022-08-11T11:09:57.184Z,21.28
2022-08-11T11:11:07.421Z,21.28
2022-08-11T11:13:08.298Z,21.27
2022-08-11T11:14:45.819Z,21.24
2022-08-11T11:16:19.002Z,21.23
2022-08-11T11:17:54.306Z,21.22
2022-08-11T11:19:26.826Z,21.21
2022-08-11T11:20:49.771Z,21.18
2022-08-11T11:22:21.168Z,21.16
2022-08-11T11:23:51.730Z,21.15
2022-08-11T11:25:24.415Z,21.18
2022-08-11T11:27:09.346Z,21.21
2022-08-11T11:29:04.324Z,21.21
2022-08-11T11:30:13.587Z,21.19
2022-08-11T11:31:51.711Z,21.19
2022-08-11T11:33:16.903Z,21.19
2022-08-11T11:34:52.911Z,21.17
2022-08-11T11:36:38.676Z,21.20
2022-08-11T11:38:04.124Z,21.24
2022-08-11T11:39:16.044Z,21.30
2022-08-11T11:40:30.629Z,21.36
2022-08-11T11:41:42.477Z,21.41
2022-08-11T11:42:53.582Z,21.44
2022-08-11T11:44:01.501Z,21.45
2022-08-11T11:45:10.381Z,21.46
2022-08-11T11:46:38.564Z,21.46
2022-08-11T11:47:46.913Z,21.46
2022-08-11T11:49:16.846Z,21.46
2022-08-11T11:50:38.679Z,21.46
2022-08-11T11:51:54.040Z,21.46
2022-08-11T11:53:04.019Z,21.48
2022-08-11T11:54:11.640Z,21.51
2022-08-11T11:56:28.219Z,21.54
2022-08-11T11:58:02.886Z,21.55
2022-08-11T11:59:30.052Z,21.54
2022-08-11T12:00:55.897Z,21.51
2022-08-11T12:02:11.795Z,21.46
2022-08-11T12:03:23.575Z,21.41
2022-08-11T12:04:31.196Z,21.38
2022-08-11T12:05:39.092Z,21.35
2022-08-11T12:06:48.482Z,21.32
2022-08-11T12:08:17.767Z,21.31
2022-08-11T12:09:28.068Z,21.29
2022-08-11T12:10:35.929Z,21.29
2022-08-11T12:12:02.612Z,21.29
2022-08-11T12:13:31.485Z,21.27
2022-08-11T12:14:39.225Z,21.23
2022-08-11T12:16:31.969Z,21.21
2022-08-11T12:17:17.101Z,21.17
2022-08-11T12:18:26.232Z,21.13
2022-08-11T12:19:35.695Z,21.09
2022-08-11T12:20:43.923Z,21.06
2022-08-11T12:22:12.745Z,21.02
2022-08-11T12:23:41.707Z,20.98
2022-08-11T12:25:09.756Z,20.93
2022-08-11T12:26:38.945Z,20.87
2022-08-11T12:27:46.473Z,20.82
2022-08-11T12:28:55.217Z,20.79
2022-08-11T12:30:13.680Z,20.76
2022-08-11T12:31:24.486Z,20.71
2022-08-11T12:32:35.285Z,20.68
2022-08-11T12:33:45.950Z,20.63
2022-08-11T12:34:53.699Z,20.60
2022-08-11T12:36:03.580Z,20.57
2022-08-11T12:37:14.298Z,20.54
2022-08-11T12:38:29.786Z,20.51
2022-08-11T12:40:42.728Z,20.50
2022-08-11T12:42:02.495Z,20.48
2022-08-11T12:43:37.397Z,20.46
2022-08-11T12:45:07.872Z,20.44
2022-08-11T12:46:43.997Z,20.41
2022-08-11T12:48:57.755Z,20.39
2022-08-11T12:50:04.227Z,20.35
2022-08-11T12:52:11.502Z,20.34
2022-08-11T12:53:11.569Z,20.38
2022-08-11T12:54:24.559Z,20.41
2022-08-11T12:56:07.450Z,20.42
2022-08-11T12:58:03.674Z,20.41
2022-08-11T12:59:30.494Z,20.37
2022-08-11T13:00:58.424Z,20.34
2022-08-11T13:02:27.240Z,20.30
2022-08-11T13:03:58.691Z,20.26
2022-08-11T13:05:07.799Z,20.24
2022-08-11T13:06:15.438Z,20.22
2022-08-11T13:07:27.266Z,20.20
2022-08-11T13:09:00.924Z,20.20
2022-08-11T13:10:16.919Z,20.21
2022-08-11T13:11:55.871Z,20.21
2022-08-11T13:13:53.852Z,20.21
2022-08-11T13:14:40.121Z,20.23
2022-08-11T13:15:51.001Z,20.27
2022-08-11T13:17:16.909Z,20.32
2022-08-11T13:18:25.700Z,20.36
2022-08-11T13:19:34.325Z,20.41
2022-08-11T13:20:41.430Z,20.49
2022-08-11T13:21:49.305Z,20.56
2022-08-11T13:22:57.866Z,20.63
2022-08-11T13:24:06.884Z,20.67
2022-08-11T13:25:17.275Z,20.70
2022-08-11T13:26:47.191Z,20.71
2022-08-11T13:28:01.754Z,20.73
2022-08-11T13:29:13.051Z,20.76
2022-08-11T13:30:47.341Z,20.80
2022-08-11T13:32:01.698Z,20.87
2022-08-11T13:33:09.161Z,20.96
2022-08-11T13:34:20.258Z,21.04
2022-08-11T13:35:29.205Z,21.12
2022-08-11T13:36:37.971Z,21.16
2022-08-11T13:38:19.622Z,21.23
2022-08-11T13:39:18.570Z,21.31
2022-08-11T13:40:45.774Z,21.39
2022-08-11T13:41:59.236Z,21.49
2022-08-11T13:43:07.640Z,21.59
2022-08-11T13:44:23.259Z,21.70
2022-08-11T13:45:37.578Z,21.78
2022-08-11T13:46:46.488Z,21.88
2022-08-11T13:48:01.234Z,21.99
2022-08-11T13:49:10.771Z,22.16
2022-08-11T13:50:20.235Z,22.40
2022-08-11T13:51:36.894Z,22.66
2022-08-11T13:52:48.046Z,22.91
2022-08-11T13:53:59.003Z,23.09
2022-08-11T13:55:45.156Z,23.27
2022-08-11T13:56:54.313Z,23.50
2022-08-11T13:58:08.755Z,23.68
2022-08-11T13:59:29.637Z,23.84
2022-08-11T14:00:40.194Z,23.97
2022-08-11T14:02:21.812Z,24.11
2022-08-11T14:04:30.175Z,24.28
2022-08-11T14:05:16.511Z,24.48
2022-08-11T14:06:24.873Z,24.61
2022-08-11T14:08:02.511Z,24.70
2022-08-11T14:09:13.119Z,24.75
2022-08-11T14:10:22.148Z,24.83
2022-08-11T14:12:21.393Z,24.93
2022-08-11T14:13:42.434Z,25.10
2022-08-11T14:15:22.419Z,25.31
2022-08-11T14:16:35.483Z,25.51
2022-08-11T14:17:52.614Z,25.74
2022-08-11T14:19:06.884Z,26.01
2022-08-11T14:20:38.997Z,26.29
2022-08-11T14:22:07.929Z,26.56
2022-08-11T14:23:17.380Z,26.86
2022-08-11T14:24:25.231Z,27.07
2022-08-11T14:26:00.301Z,27.28
2022-08-11T14:27:03.644Z,27.44
2022-08-11T14:28:29.696Z,27.54
2022-08-11T14:29:48.858Z,27.60
2022-08-11T14:31:01.180Z,27.76
2022-08-11T14:32:12.794Z,27.93
2022-08-11T14:33:21.681Z,28.10
2022-08-11T14:34:33.525Z,28.32
2022-08-11T14:35:44.434Z,28.57
2022-08-11T14:37:01.646Z,28.71
2022-08-11T14:38:08.790Z,28.77
2022-08-11T14:39:18.480Z,28.86
2022-08-11T14:40:44.818Z,28.96
2022-08-11T14:42:14.536Z,29.08
2022-08-11T14:44:12.402Z,29.22
2022-08-11T14:45:57.831Z,29.27
2022-08-11T14:47:24.008Z,29.27
2022-08-11T14:48:34.785Z,29.41
2022-08-11T14:49:56.197Z,29.57
2022-08-11T14:51:15.535Z,29.68
2022-08-11T14:52:24.161Z,29.65
2022-08-11T14:53:31.294Z,29.67
2022-08-11T14:54:59.861Z,29.76
2022-08-11T14:56:25.472Z,29.84
2022-08-11T14:57:55.824Z,29.97
2022-08-11T14:59:05.236Z,30.20
2022-08-11T15:00:19.992Z,30.42
2022-08-11T15:01:51.839Z,30.63
2022-08-11T15:03:14.494Z,30.78
2022-08-11T15:04:34.564Z,30.90
2022-08-11T15:05:57.583Z,31.11
2022-08-11T15:07:16.247Z,31.24
2022-08-11T15:08:56.826Z,31.24
2022-08-11T15:10:13.437Z,31.19
2022-08-11T15:11:42.984Z,31.17
2022-08-11T15:12:51.417Z,31.20
2022-08-11T15:13:58.685Z,31.31
2022-08-11T15:15:29.805Z,31.35
2022-08-11T15:16:57.352Z,31.39
2022-08-11T15:18:07.792Z,31.48
2022-08-11T15:19:18.117Z,31.52
2022-08-11T15:20:47.530Z,31.72
2022-08-11T15:22:14.198Z,31.83
2022-08-11T15:23:43.474Z,31.99
2022-08-11T15:24:52.456Z,32.06
2022-08-11T15:26:06.934Z,32.12
2022-08-11T15:27:40.369Z,32.39
2022-08-11T15:29:09.841Z,32.68
2022-08-11T15:30:35.741Z,32.80
2022-08-11T15:32:02.577Z,33.00
2022-08-11T15:33:32.329Z,33.07
2022-08-11T15:35:03.988Z,33.29
2022-08-11T15:36:31.992Z,33.46
2022-08-11T15:37:40.805Z,33.66
2022-08-11T15:39:31.211Z,33.89
2022-08-11T15:41:01.218Z,34.18
2022-08-11T15:42:39.033Z,34.34
2022-08-11T15:44:13.543Z,34.41
2022-08-11T15:45:44.960Z,34.42
2022-08-11T15:46:55.295Z,34.44
2022-08-11T15:48:10.863Z,34.59
2022-08-11T15:49:25.357Z,34.75
2022-08-11T15:50:58.871Z,34.92
2022-08-11T15:52:11.489Z,35.11
2022-08-11T15:53:31.750Z,35.31
2022-08-11T15:54:44.315Z,35.52
2022-08-11T15:55:52.316Z,35.68
2022-08-11T15:57:03.739Z,35.81
2022-08-11T15:58:33.072Z,35.95
2022-08-11T15:59:59.504Z,35.99
2022-08-11T16:01:27.982Z,35.98
2022-08-11T16:02:55.978Z,35.94
2022-08-11T16:04:18.329Z,35.95
2022-08-11T16:05:45.915Z,36.09
2022-08-11T16:07:14.653Z,36.19
2022-08-11T16:08:33.313Z,36.26
2022-08-11T16:09:51.845Z,36.48
2022-08-11T16:11:04.146Z,36.60
2022-08-11T16:12:33.591Z,36.62
2022-08-11T16:13:44.717Z,36.85
2022-08-11T16:15:20.965Z,36.99
2022-08-11T16:16:32.010Z,37.11
2022-08-11T16:17:55.859Z,37.11
2022-08-11T16:19:07.335Z,37.12
2022-08-11T16:20:18.435Z,37.23
2022-08-11T16:21:38.110Z,37.28
2022-08-11T16:23:00.333Z,37.17
2022-08-11T16:26:30.563Z,37.07
2022-08-11T16:27:05.883Z,37.05
2022-08-11T16:27:24.258Z,37.05
2022-08-11T16:28:33.153Z,37.21
2022-08-11T16:29:46.572Z,37.43
2022-08-11T16:30:56.240Z,37.52
2022-08-11T16:32:24.033Z,37.66
2022-08-11T16:33:49.916Z,37.55
2022-08-11T16:35:23.920Z,37.42
2022-08-11T16:36:53.822Z,37.58
2022-08-11T16:38:25.314Z,37.86
2022-08-11T16:39:37.588Z,38.13
2022-08-11T16:40:53.517Z,38.14
2022-08-11T16:43:05.250Z,38.07
2022-08-11T16:44:08.012Z,38.11
2022-08-11T16:45:36.952Z,38.07
2022-08-11T16:47:08.061Z,38.04
2022-08-11T16:48:36.635Z,38.08
2022-08-11T16:49:53.258Z,38.15
2022-08-11T16:51:02.805Z,37.99
2022-08-11T16:52:14.908Z,38.00
2022-08-11T16:53:23.525Z,37.98
2022-08-11T16:54:53.088Z,38.13
2022-08-11T16:56:05.332Z,38.33
2022-08-11T16:57:46.901Z,38.52
2022-08-11T16:59:17.604Z,38.42
2022-08-11T17:00:27.525Z,38.26
2022-08-11T17:01:36.619Z,38.34
2022-08-11T17:03:15.486Z,38.36
2022-08-11T17:05:14.706Z,38.26
2022-08-11T17:06:42.054Z,38.34
2022-08-11T17:08:11.257Z,38.54
2022-08-11T17:09:41.788Z,38.75
2022-08-11T17:11:22.640Z,38.54
2022-08-11T17:12:52.953Z,38.13
2022-08-11T17:14:35.857Z,38.05
2022-08-11T17:16:09.101Z,38.25
2022-08-11T17:17:27.872Z,38.59
2022-08-11T17:18:47.061Z,38.71
2022-08-11T17:20:43.086Z,38.44
2022-08-11T17:22:07.508Z,38.19
2022-08-11T17:23:35.877Z,37.96
2022-08-11T17:24:46.543Z,38.12
2022-08-11T17:26:03.333Z,38.16
2022-08-11T17:27:17.866Z,37.91
2022-08-11T17:28:28.347Z,37.72
2022-08-11T17:29:54.557Z,37.63
2022-08-11T17:31:27.918Z,37.45
2022-08-11T17:33:08.310Z,37.51
2022-08-11T17:34:38.057Z,37.62
2022-08-11T17:35:46.233Z,37.79
2022-08-11T17:36:56.082Z,37.97
2022-08-11T17:38:08.616Z,38.06
2022-08-11T17:39:17.582Z,38.14
2022-08-11T17:40:28.013Z,38.24
2022-08-11T17:41:54.126Z,38.35
2022-08-11T17:43:24.418Z,38.38
2022-08-11T17:44:52.250Z,38.43
2022-08-11T17:46:20.635Z,38.62
2022-08-11T17:47:48.539Z,38.83
2022-08-11T17:48:58.343Z,39.11
2022-08-11T17:50:17.787Z,39.15
2022-08-11T17:51:45.961Z,39.37
2022-08-11T17:53:11.579Z,39.47
2022-08-11T17:54:40.351Z,39.30
2022-08-11T17:56:10.271Z,39.18
2022-08-11T17:57:39.993Z,39.08
2022-08-11T17:59:11.310Z,39.03
2022-08-11T18:00:19.506Z,39.02
2022-08-11T18:01:29.937Z,39.06
2022-08-11T18:03:16.776Z,39.02
2022-08-11T18:04:24.871Z,39.29
2022-08-11T18:05:34.049Z,39.43
2022-08-11T18:06:43.226Z,39.38
2022-08-11T18:08:11.115Z,39.43
2022-08-11T18:09:42.103Z,39.34
2022-08-11T18:11:09.720Z,39.44
2022-08-11T18:12:36.380Z,39.31
2022-08-11T18:14:08.292Z,39.26
2022-08-11T18:15:38.555Z,39.26
2022-08-11T18:17:20.867Z,39.10
2022-08-11T18:18:48.632Z,38.98
2022-08-11T18:20:15.454Z,38.89
2022-08-11T18:21:42.793Z,38.78
2022-08-11T18:23:13.028Z,38.65
2022-08-11T18:24:42.413Z,38.60
2022-08-11T18:26:08.738Z,38.59